Terminal Aerodrome Forecast
Issued by NWS New Orleans/Baton Rouge, LA

Home | Current Version | Previous Version | Text Only | Print | Product List | Glossary On
Versions: 1 2 3 4 5 6 7 8 9 10 11 12 13 14 15 16 17 18 19 20 21 22 23
000
FTUS44 KLIX 282341
TAFBTR
TAF
KBTR 282341Z 2900/2924 17009KT P6SM SCT060
     FM290600 14006KT P6SM BKN025
     FM290900 13006KT 5SM BR BKN017
     FM291100 13007KT 3SM BR BKN010
     FM291400 13008KT P6SM BKN020
     FM291500 14009KT P6SM BKN060=

USA.gov is the U.S. government's official web portal to all federal, state and local government web resources and services.